Pas de vigilance météorologique particulière.    Il n'y a aucun avertissement
Nontron en périgord vert

Webcam Lo Malatio more information Webcam Lo Malatio


Thunder radar more information blitzortung!


Rain radar  rain snow radar



Rapports METAR proximité

   
EBAW - Antwerp
Mise à jour: 20-09-2017 12:20
Peu de nuages  
Peu de nuages  
   Vent: SO 13 km/h
Vent: SO 13 km/h
Température: 16°C
Point de rosée: 10°C
Humidité: 68%
Baromètre: 1021 hPa
Nuageux: Peu de nuages
visibilité: More than 10 km
Détails des nuages: Peu de nuages 640.1 m
EBAW 201020Z 22007KT 180V270 9999 FEW021 16/10 Q1021 NOSIG
EBLG - Liège
Mise à jour: 20-09-2017 12:20
Nuageux  
Nuageux  
   Vent: OSO 14.8 km/h
Vent: OSO 14.8 km/h
Température: 14°C
Point de rosée: 8°C
Humidité: 67%
Baromètre: 1022 hPa
Nuageux: Nuageux
visibilité: More than 10 km
Détails des nuages: Partiellement nuageux 762 m,
Nuageux 1371.6 m
EBLG 201020Z 25008KT 190V270 9999 SCT025 BKN045 14/08 Q1022 NOSIG
EBCV - Mons/Bergen
Mise à jour: 20-09-2017 12:25
Peu de nuages  
Peu de nuages  
   Vent: SO 14.8 km/h
Vent: SO 14.8 km/h
Température: 15°C
Point de rosée: 10°C
Humidité: 72%
Baromètre: 1022 hPa
Nuageux: Peu de nuages
visibilité: More than 10 km
Détails des nuages: Peu de nuages 487.7 m
EBCV 201025Z AUTO 22008KT 9999 FEW016/// 15/10 Q1022 BLU
EHBK - Maastricht
Mise à jour: 20-09-2017 12:25
Nuageux  
Nuageux  
   Vent: SO 14.8 km/h
Vent: SO 14.8 km/h
Température: 15°C
Point de rosée: 9°C
Humidité: 68%
Baromètre: 1021 hPa
Nuageux: Nuageux
visibilité: More than 10 km
Détails des nuages: Partiellement nuageux 731.5 m,
Partiellement nuageux 883.9 m,
Nuageux 1219.2 m
EHBK 201025Z AUTO 23008KT 190V280 9999 SCT024 SCT029 BKN040 15/09 Q1021 NOSIG
ELLX - Luxemburg
Mise à jour: 20-09-2017 12:50
Partiellement nuageux  
Partiellement nuageux  
   Vent: Ouest 14.8 km/h
Vent: Ouest 14.8 km/h
Température: 13°C
Point de rosée: 8°C
Humidité: 72%
Baromètre: 1022 hPa
Nuageux: Partiellement nuageux
visibilité: More than 10 km
Détails des nuages: Partiellement nuageux 609.6 m,
Partiellement nuageux 731.5 m
ELLX 201050Z 26008KT 210V290 9999 SCT020 SCT024 13/08 Q1022 NOSIG
EBOS - Oostende
Mise à jour: 20-09-2017 12:50
Partiellement nuageux  
Partiellement nuageux  
   Vent: OSO 13 km/h
Vent: OSO 13 km/h
Température: 15°C
Point de rosée: 11°C
Humidité: 77%
Baromètre: 1021 hPa
Nuageux: Partiellement nuageux
visibilité: More than 10 km
Détails des nuages: Partiellement nuageux 670.6 m
EBOS 201050Z 24007KT 9999 SCT022 15/11 Q1021 NOSIG

Script développé par  Saratoga-weather.org Adapté pour le modèle par  Weerstation Leuven

Vous trouverez notre info météo Également à:

WeatherCloud

Weather Underground

AWEKAS

Citizen Weather Observer Program (CWOP)

Équipement que nous utilisons:

Station de Météo
Davis VP2

Programme Météo
WeatherCat

Ordinateur Météo
Mac mini

Provider
o2switch

Davis VP2

WeatherCat

Mac mini

o2switch


Profile for microquant